sensor_id;sensor_type;location;lat;lon;timestamp;P1;durP1;ratioP1;P2;durP2;ratioP2
64651;SDS011;51062;45.120;37.660;2022-08-21T00:01:26;46.33;;;16.17;;
64651;SDS011;51062;45.120;37.660;2022-08-21T00:03:54;42.25;;;16.23;;
64651;SDS011;51062;45.120;37.660;2022-08-21T00:06:21;42.33;;;16.27;;
64651;SDS011;51062;45.120;37.660;2022-08-21T00:08:49;52.90;;;19.05;;
64651;SDS011;51062;45.120;37.660;2022-08-21T00:11:17;41.92;;;17.58;;
64651;SDS011;51062;45.120;37.660;2022-08-21T00:13:43;42.55;;;15.50;;
64651;SDS011;51062;45.120;37.660;2022-08-21T00:16:10;37.35;;;14.52;;
64651;SDS011;51062;45.120;37.660;2022-08-21T00:18:36;35.38;;;12.65;;
64651;SDS011;51062;45.120;37.660;2022-08-21T00:21:03;32.20;;;11.18;;
64651;SDS011;51062;45.120;37.660;2022-08-21T00:23:30;26.75;;;9.85;;
64651;SDS011;51062;45.120;37.660;2022-08-21T00:25:58;23.63;;;8.02;;
64651;SDS011;51062;45.120;37.660;2022-08-21T00:28:24;22.02;;;7.07;;
64651;SDS011;51062;45.120;37.660;2022-08-21T00:30:50;21.88;;;7.68;;
64651;SDS011;51062;45.120;37.660;2022-08-21T00:33:16;23.95;;;5.93;;
64651;SDS011;51062;45.120;37.660;2022-08-21T00:35:43;22.20;;;5.75;;
64651;SDS011;51062;45.120;37.660;2022-08-21T00:38:09;26.15;;;5.57;;
64651;SDS011;51062;45.120;37.660;2022-08-21T00:40:37;18.88;;;5.53;;
64651;SDS011;51062;45.120;37.660;2022-08-21T00:43:11;16.70;;;4.90;;
64651;SDS011;51062;45.120;37.660;2022-08-21T00:45:38;30.35;;;6.13;;
64651;SDS011;51062;45.120;37.660;2022-08-21T00:48:05;38.40;;;5.97;;
64651;SDS011;51062;45.120;37.660;2022-08-21T00:50:33;24.35;;;5.95;;
64651;SDS011;51062;45.120;37.660;2022-08-21T00:53:01;26.45;;;6.03;;
64651;SDS011;51062;45.120;37.660;2022-08-21T00:55:29;27.38;;;5.55;;
64651;SDS011;51062;45.120;37.660;2022-08-21T00:57:57;23.77;;;5.18;;
64651;SDS011;51062;45.120;37.660;2022-08-21T01:00:30;22.00;;;4.82;;
64651;SDS011;51062;45.120;37.660;2022-08-21T01:02:59;20.73;;;5.18;;
64651;SDS011;51062;45.120;37.660;2022-08-21T01:05:30;33.97;;;5.82;;
64651;SDS011;51062;45.120;37.660;2022-08-21T01:07:57;19.90;;;4.82;;
64651;SDS011;51062;45.120;37.660;2022-08-21T01:10:23;18.88;;;4.50;;
64651;SDS011;51062;45.120;37.660;2022-08-21T01:12:50;18.63;;;4.93;;
64651;SDS011;51062;45.120;37.660;2022-08-21T01:15:22;27.15;;;4.75;;
64651;SDS011;51062;45.120;37.660;2022-08-21T01:17:50;30.85;;;5.53;;
64651;SDS011;51062;45.120;37.660;2022-08-21T01:20:17;31.52;;;5.50;;
64651;SDS011;51062;45.120;37.660;2022-08-21T01:22:43;31.45;;;5.40;;
64651;SDS011;51062;45.120;37.660;2022-08-21T01:25:10;28.02;;;5.97;;
64651;SDS011;51062;45.120;37.660;2022-08-21T01:27:36;32.78;;;6.25;;
64651;SDS011;51062;45.120;37.660;2022-08-21T01:30:07;37.97;;;5.60;;
64651;SDS011;51062;45.120;37.660;2022-08-21T01:32:37;39.38;;;5.57;;
64651;SDS011;51062;45.120;37.660;2022-08-21T01:35:04;19.77;;;4.97;;
64651;SDS011;51062;45.120;37.660;2022-08-21T01:37:31;23.90;;;5.00;;
64651;SDS011;51062;45.120;37.660;2022-08-21T01:39:57;34.05;;;5.30;;
64651;SDS011;51062;45.120;37.660;2022-08-21T01:42:24;26.10;;;4.90;;
64651;SDS011;51062;45.120;37.660;2022-08-21T01:44:50;34.47;;;5.22;;
64651;SDS011;51062;45.120;37.660;2022-08-21T01:47:16;29.33;;;4.97;;
64651;SDS011;51062;45.120;37.660;2022-08-21T01:49:43;26.83;;;5.68;;
64651;SDS011;51062;45.120;37.660;2022-08-21T01:52:10;21.70;;;5.03;;
64651;SDS011;51062;45.120;37.660;2022-08-21T01:54:37;20.58;;;5.68;;
64651;SDS011;51062;45.120;37.660;2022-08-21T01:57:04;32.30;;;5.47;;
64651;SDS011;51062;45.120;37.660;2022-08-21T01:59:31;38.53;;;6.45;;
64651;SDS011;51062;45.120;37.660;2022-08-21T02:01:58;19.95;;;4.90;;
64651;SDS011;51062;45.120;37.660;2022-08-21T02:04:24;29.73;;;5.07;;
64651;SDS011;51062;45.120;37.660;2022-08-21T02:06:50;34.45;;;5.68;;
64651;SDS011;51062;45.120;37.660;2022-08-21T02:09:16;26.38;;;5.53;;
64651;SDS011;51062;45.120;37.660;2022-08-21T02:11:43;29.73;;;5.15;;
64651;SDS011;51062;45.120;37.660;2022-08-21T02:14:12;28.55;;;5.20;;
64651;SDS011;51062;45.120;37.660;2022-08-21T02:16:41;27.40;;;5.18;;
64651;SDS011;51062;45.120;37.660;2022-08-21T02:19:09;26.25;;;5.55;;
64651;SDS011;51062;45.120;37.660;2022-08-21T02:21:36;20.50;;;6.22;;
64651;SDS011;51062;45.120;37.660;2022-08-21T02:24:03;23.73;;;5.10;;
64651;SDS011;51062;45.120;37.660;2022-08-21T02:26:30;30.77;;;4.80;;
64651;SDS011;51062;45.120;37.660;2022-08-21T02:28:56;24.77;;;4.95;;
64651;SDS011;51062;45.120;37.660;2022-08-21T02:31:22;31.85;;;6.10;;
64651;SDS011;51062;45.120;37.660;2022-08-21T02:33:48;23.42;;;5.10;;
64651;SDS011;51062;45.120;37.660;2022-08-21T02:36:14;16.40;;;4.47;;
64651;SDS011;51062;45.120;37.660;2022-08-21T02:38:41;24.83;;;5.40;;
64651;SDS011;51062;45.120;37.660;2022-08-21T02:41:17;25.33;;;4.50;;
64651;SDS011;51062;45.120;37.660;2022-08-21T02:43:45;17.80;;;5.05;;
64651;SDS011;51062;45.120;37.660;2022-08-21T02:46:12;20.73;;;5.15;;
64651;SDS011;51062;45.120;37.660;2022-08-21T02:48:40;21.63;;;4.30;;
64651;SDS011;51062;45.120;37.660;2022-08-21T02:51:11;19.90;;;5.03;;
64651;SDS011;51062;45.120;37.660;2022-08-21T02:53:40;28.98;;;5.43;;
64651;SDS011;51062;45.120;37.660;2022-08-21T02:56:08;18.83;;;4.70;;
64651;SDS011;51062;45.120;37.660;2022-08-21T02:58:40;26.75;;;4.68;;
64651;SDS011;51062;45.120;37.660;2022-08-21T03:01:09;19.52;;;5.45;;
64651;SDS011;51062;45.120;37.660;2022-08-21T03:03:36;21.40;;;5.22;;
64651;SDS011;51062;45.120;37.660;2022-08-21T03:06:05;23.45;;;5.07;;
64651;SDS011;51062;45.120;37.660;2022-08-21T03:08:33;30.42;;;5.35;;
64651;SDS011;51062;45.120;37.660;2022-08-21T03:11:00;21.85;;;5.30;;
64651;SDS011;51062;45.120;37.660;2022-08-21T03:13:27;28.00;;;4.88;;
64651;SDS011;51062;45.120;37.660;2022-08-21T03:15:54;21.95;;;5.10;;
64651;SDS011;51062;45.120;37.660;2022-08-21T03:18:21;27.70;;;4.97;;
64651;SDS011;51062;45.120;37.660;2022-08-21T03:20:48;21.73;;;5.28;;
64651;SDS011;51062;45.120;37.660;2022-08-21T03:23:15;33.03;;;5.90;;
64651;SDS011;51062;45.120;37.660;2022-08-21T03:25:42;28.45;;;5.55;;
64651;SDS011;51062;45.120;37.660;2022-08-21T03:28:12;19.42;;;4.75;;
64651;SDS011;51062;45.120;37.660;2022-08-21T03:30:41;26.88;;;6.18;;
64651;SDS011;51062;45.120;37.660;2022-08-21T03:33:08;45.50;;;5.97;;
64651;SDS011;51062;45.120;37.660;2022-08-21T03:35:34;36.00;;;6.90;;
64651;SDS011;51062;45.120;37.660;2022-08-21T03:38:00;13.45;;;4.80;;
64651;SDS011;51062;45.120;37.660;2022-08-21T03:40:27;32.13;;;5.55;;
64651;SDS011;51062;45.120;37.660;2022-08-21T03:42:53;27.83;;;4.88;;
64651;SDS011;51062;45.120;37.660;2022-08-21T03:45:19;26.02;;;5.25;;
64651;SDS011;51062;45.120;37.660;2022-08-21T03:47:56;28.83;;;5.70;;
64651;SDS011;51062;45.120;37.660;2022-08-21T03:50:27;27.98;;;5.82;;
64651;SDS011;51062;45.120;37.660;2022-08-21T03:52:55;25.75;;;6.03;;
64651;SDS011;51062;45.120;37.660;2022-08-21T03:55:22;31.13;;;5.40;;
64651;SDS011;51062;45.120;37.660;2022-08-21T03:57:49;27.55;;;5.38;;
64651;SDS011;51062;45.120;37.660;2022-08-21T04:00:15;25.95;;;4.68;;
64651;SDS011;51062;45.120;37.660;2022-08-21T04:02:44;28.17;;;6.32;;
64651;SDS011;51062;45.120;37.660;2022-08-21T04:05:12;27.33;;;5.18;;
64651;SDS011;51062;45.120;37.660;2022-08-21T04:07:39;22.08;;;5.70;;
64651;SDS011;51062;45.120;37.660;2022-08-21T04:10:06;24.95;;;6.20;;
64651;SDS011;51062;45.120;37.660;2022-08-21T04:12:33;29.73;;;4.95;;
64651;SDS011;51062;45.120;37.660;2022-08-21T04:14:59;34.83;;;5.95;;
64651;SDS011;51062;45.120;37.660;2022-08-21T04:17:27;25.63;;;5.60;;
64651;SDS011;51062;45.120;37.660;2022-08-21T04:19:53;29.65;;;4.90;;
64651;SDS011;51062;45.120;37.660;2022-08-21T04:22:19;32.05;;;4.50;;
64651;SDS011;51062;45.120;37.660;2022-08-21T04:24:46;30.77;;;4.63;;
64651;SDS011;51062;45.120;37.660;2022-08-21T04:27:12;28.92;;;5.50;;
64651;SDS011;51062;45.120;37.660;2022-08-21T04:29:38;32.38;;;5.35;;
64651;SDS011;51062;45.120;37.660;2022-08-21T04:32:04;25.92;;;4.57;;
64651;SDS011;51062;45.120;37.660;2022-08-21T04:34:31;31.33;;;5.40;;
64651;SDS011;51062;45.120;37.660;2022-08-21T04:36:57;38.30;;;5.95;;
64651;SDS011;51062;45.120;37.660;2022-08-21T04:39:23;25.15;;;5.85;;
64651;SDS011;51062;45.120;37.660;2022-08-21T04:41:49;29.67;;;6.13;;
64651;SDS011;51062;45.120;37.660;2022-08-21T04:44:15;31.90;;;5.40;;
64651;SDS011;51062;45.120;37.660;2022-08-21T04:46:41;34.92;;;6.60;;
64651;SDS011;51062;45.120;37.660;2022-08-21T04:49:08;25.48;;;5.68;;
64651;SDS011;51062;45.120;37.660;2022-08-21T04:51:34;34.63;;;5.43;;
64651;SDS011;51062;45.120;37.660;2022-08-21T04:54:09;25.88;;;5.45;;
64651;SDS011;51062;45.120;37.660;2022-08-21T04:56:41;35.60;;;6.28;;
64651;SDS011;51062;45.120;37.660;2022-08-21T04:59:12;29.25;;;5.80;;
64651;SDS011;51062;45.120;37.660;2022-08-21T05:01:41;32.17;;;5.40;;
64651;SDS011;51062;45.120;37.660;2022-08-21T05:04:10;30.85;;;5.47;;
64651;SDS011;51062;45.120;37.660;2022-08-21T05:06:40;37.58;;;6.35;;
64651;SDS011;51062;45.120;37.660;2022-08-21T05:09:09;30.50;;;6.43;;
64651;SDS011;51062;45.120;37.660;2022-08-21T05:11:40;26.05;;;5.72;;
64651;SDS011;51062;45.120;37.660;2022-08-21T05:14:07;33.17;;;7.47;;
64651;SDS011;51062;45.120;37.660;2022-08-21T05:16:34;23.92;;;6.03;;
64651;SDS011;51062;45.120;37.660;2022-08-21T05:19:00;26.02;;;5.47;;
64651;SDS011;51062;45.120;37.660;2022-08-21T05:21:26;28.25;;;6.55;;
64651;SDS011;51062;45.120;37.660;2022-08-21T05:23:52;32.03;;;6.55;;
64651;SDS011;51062;45.120;37.660;2022-08-21T05:26:19;36.03;;;6.03;;
64651;SDS011;51062;45.120;37.660;2022-08-21T05:28:45;26.58;;;5.70;;
64651;SDS011;51062;45.120;37.660;2022-08-21T05:31:11;38.90;;;6.63;;
64651;SDS011;51062;45.120;37.660;2022-08-21T05:33:37;34.45;;;6.82;;
64651;SDS011;51062;45.120;37.660;2022-08-21T05:36:03;27.80;;;6.03;;
64651;SDS011;51062;45.120;37.660;2022-08-21T05:38:29;33.10;;;7.03;;
64651;SDS011;51062;45.120;37.660;2022-08-21T05:40:56;24.23;;;6.15;;
64651;SDS011;51062;45.120;37.660;2022-08-21T05:43:22;27.88;;;5.70;;
64651;SDS011;51062;45.120;37.660;2022-08-21T05:45:48;29.77;;;6.38;;
64651;SDS011;51062;45.120;37.660;2022-08-21T05:48:15;27.90;;;6.57;;
64651;SDS011;51062;45.120;37.660;2022-08-21T05:50:45;34.70;;;6.20;;
64651;SDS011;51062;45.120;37.660;2022-08-21T05:53:12;23.60;;;6.18;;
64651;SDS011;51062;45.120;37.660;2022-08-21T05:55:39;28.40;;;6.20;;
64651;SDS011;51062;45.120;37.660;2022-08-21T05:58:07;32.22;;;6.95;;
64651;SDS011;51062;45.120;37.660;2022-08-21T06:00:33;20.42;;;5.30;;
64651;SDS011;51062;45.120;37.660;2022-08-21T06:02:59;37.13;;;6.35;;
64651;SDS011;51062;45.120;37.660;2022-08-21T06:05:26;35.00;;;6.18;;
64651;SDS011;51062;45.120;37.660;2022-08-21T06:07:52;38.33;;;7.25;;
64651;SDS011;51062;45.120;37.660;2022-08-21T06:10:18;35.47;;;6.43;;
64651;SDS011;51062;45.120;37.660;2022-08-21T06:12:44;28.15;;;6.35;;
64651;SDS011;51062;45.120;37.660;2022-08-21T06:15:11;23.38;;;5.90;;
64651;SDS011;51062;45.120;37.660;2022-08-21T06:17:37;28.38;;;6.57;;
64651;SDS011;51062;45.120;37.660;2022-08-21T06:20:03;30.60;;;6.53;;
64651;SDS011;51062;45.120;37.660;2022-08-21T06:22:30;28.85;;;6.35;;
64651;SDS011;51062;45.120;37.660;2022-08-21T06:24:56;32.65;;;5.82;;
64651;SDS011;51062;45.120;37.660;2022-08-21T06:27:22;29.55;;;5.85;;
64651;SDS011;51062;45.120;37.660;2022-08-21T06:29:49;77.97;;;7.28;;
64651;SDS011;51062;45.120;37.660;2022-08-21T06:32:15;31.33;;;6.68;;
64651;SDS011;51062;45.120;37.660;2022-08-21T06:34:41;21.65;;;5.72;;
64651;SDS011;51062;45.120;37.660;2022-08-21T06:37:07;34.83;;;6.00;;
64651;SDS011;51062;45.120;37.660;2022-08-21T06:39:33;40.90;;;6.25;;
64651;SDS011;51062;45.120;37.660;2022-08-21T06:42:00;26.38;;;5.20;;
64651;SDS011;51062;45.120;37.660;2022-08-21T06:44:28;34.65;;;6.40;;
64651;SDS011;51062;45.120;37.660;2022-08-21T06:46:55;31.98;;;5.57;;
64651;SDS011;51062;45.120;37.660;2022-08-21T06:49:22;25.40;;;5.25;;
64651;SDS011;51062;45.120;37.660;2022-08-21T06:51:48;21.67;;;4.65;;
64651;SDS011;51062;45.120;37.660;2022-08-21T06:54:14;80.65;;;7.38;;
64651;SDS011;51062;45.120;37.660;2022-08-21T06:56:41;24.17;;;5.75;;
64651;SDS011;51062;45.120;37.660;2022-08-21T06:59:07;15.63;;;4.35;;
64651;SDS011;51062;45.120;37.660;2022-08-21T07:01:33;23.13;;;4.63;;
64651;SDS011;51062;45.120;37.660;2022-08-21T07:03:59;25.65;;;4.82;;
64651;SDS011;51062;45.120;37.660;2022-08-21T07:06:25;22.90;;;5.25;;
64651;SDS011;51062;45.120;37.660;2022-08-21T07:08:51;22.35;;;5.57;;
64651;SDS011;51062;45.120;37.660;2022-08-21T07:11:19;26.60;;;5.53;;
64651;SDS011;51062;45.120;37.660;2022-08-21T07:13:47;38.28;;;5.35;;
64651;SDS011;51062;45.120;37.660;2022-08-21T07:16:14;18.40;;;4.80;;
64651;SDS011;51062;45.120;37.660;2022-08-21T07:18:40;17.50;;;4.95;;
64651;SDS011;51062;45.120;37.660;2022-08-21T07:21:07;25.25;;;5.00;;
64651;SDS011;51062;45.120;37.660;2022-08-21T07:23:35;32.00;;;5.22;;
64651;SDS011;51062;45.120;37.660;2022-08-21T07:26:05;32.17;;;5.55;;
64651;SDS011;51062;45.120;37.660;2022-08-21T07:28:32;27.25;;;4.90;;
64651;SDS011;51062;45.120;37.660;2022-08-21T07:30:59;23.00;;;4.75;;
64651;SDS011;51062;45.120;37.660;2022-08-21T07:33:27;15.02;;;4.57;;
64651;SDS011;51062;45.120;37.660;2022-08-21T07:35:54;15.52;;;4.68;;
64651;SDS011;51062;45.120;37.660;2022-08-21T07:38:21;36.30;;;5.05;;
64651;SDS011;51062;45.120;37.660;2022-08-21T07:40:48;32.25;;;4.47;;
64651;SDS011;51062;45.120;37.660;2022-08-21T07:43:16;23.10;;;4.55;;
64651;SDS011;51062;45.120;37.660;2022-08-21T07:45:43;22.95;;;4.68;;
64651;SDS011;51062;45.120;37.660;2022-08-21T07:48:10;17.17;;;4.75;;
64651;SDS011;51062;45.120;37.660;2022-08-21T07:50:37;18.58;;;4.68;;
64651;SDS011;51062;45.120;37.660;2022-08-21T07:53:03;20.17;;;4.40;;
64651;SDS011;51062;45.120;37.660;2022-08-21T07:55:29;23.33;;;4.50;;
64651;SDS011;51062;45.120;37.660;2022-08-21T07:57:55;17.58;;;4.03;;
64651;SDS011;51062;45.120;37.660;2022-08-21T08:00:23;22.65;;;4.03;;
64651;SDS011;51062;45.120;37.660;2022-08-21T08:02:50;20.65;;;3.97;;
64651;SDS011;51062;45.120;37.660;2022-08-21T08:05:19;15.13;;;3.45;;
64651;SDS011;51062;45.120;37.660;2022-08-21T08:07:48;17.45;;;3.85;;
64651;SDS011;51062;45.120;37.660;2022-08-21T08:10:15;44.08;;;4.85;;
64651;SDS011;51062;45.120;37.660;2022-08-21T08:12:43;18.70;;;4.28;;
64651;SDS011;51062;45.120;37.660;2022-08-21T08:15:17;19.65;;;4.28;;
64651;SDS011;51062;45.120;37.660;2022-08-21T08:17:47;20.80;;;3.83;;
64651;SDS011;51062;45.120;37.660;2022-08-21T08:20:16;21.60;;;5.00;;
64651;SDS011;51062;45.120;37.660;2022-08-21T08:22:43;21.30;;;4.15;;
64651;SDS011;51062;45.120;37.660;2022-08-21T08:25:11;243.93;;;16.52;;
64651;SDS011;51062;45.120;37.660;2022-08-21T08:27:40;27.17;;;4.13;;
64651;SDS011;51062;45.120;37.660;2022-08-21T08:30:08;26.42;;;5.03;;
64651;SDS011;51062;45.120;37.660;2022-08-21T08:32:37;17.92;;;4.70;;
64651;SDS011;51062;45.120;37.660;2022-08-21T08:35:05;17.10;;;4.25;;
64651;SDS011;51062;45.120;37.660;2022-08-21T08:37:33;16.80;;;4.82;;
64651;SDS011;51062;45.120;37.660;2022-08-21T08:40:46;32.30;;;4.70;;
64651;SDS011;51062;45.120;37.660;2022-08-21T08:43:13;28.20;;;4.80;;
64651;SDS011;51062;45.120;37.660;2022-08-21T08:45:42;23.75;;;4.65;;
64651;SDS011;51062;45.120;37.660;2022-08-21T08:48:13;31.85;;;5.10;;
64651;SDS011;51062;45.120;37.660;2022-08-21T08:50:49;21.25;;;4.75;;
64651;SDS011;51062;45.120;37.660;2022-08-21T08:53:23;33.85;;;4.60;;
64651;SDS011;51062;45.120;37.660;2022-08-21T08:56:11;26.58;;;4.18;;
64651;SDS011;51062;45.120;37.660;2022-08-21T08:58:40;18.45;;;4.10;;
64651;SDS011;51062;45.120;37.660;2022-08-21T09:01:16;24.00;;;4.68;;
64651;SDS011;51062;45.120;37.660;2022-08-21T09:03:46;21.50;;;3.95;;
64651;SDS011;51062;45.120;37.660;2022-08-21T09:11:41;22.27;;;4.32;;
64651;SDS011;51062;45.120;37.660;2022-08-21T09:19:39;19.23;;;4.05;;
64651;SDS011;51062;45.120;37.660;2022-08-21T09:22:28;34.55;;;4.80;;
64651;SDS011;51062;45.120;37.660;2022-08-21T09:27:48;30.07;;;5.63;;
64651;SDS011;51062;45.120;37.660;2022-08-21T09:30:14;49.28;;;5.68;;
64651;SDS011;51062;45.120;37.660;2022-08-21T09:32:40;38.30;;;4.85;;
64651;SDS011;51062;45.120;37.660;2022-08-21T09:35:08;56.10;;;5.47;;
64651;SDS011;51062;45.120;37.660;2022-08-21T09:38:02;42.95;;;5.15;;
64651;SDS011;51062;45.120;37.660;2022-08-21T09:40:36;24.17;;;4.22;;
64651;SDS011;51062;45.120;37.660;2022-08-21T09:43:10;61.97;;;6.28;;
64651;SDS011;51062;45.120;37.660;2022-08-21T09:45:45;51.97;;;6.55;;
64651;SDS011;51062;45.120;37.660;2022-08-21T09:48:22;35.20;;;5.88;;
64651;SDS011;51062;45.120;37.660;2022-08-21T09:50:50;30.73;;;5.28;;
64651;SDS011;51062;45.120;37.660;2022-08-21T09:53:22;39.20;;;5.03;;
64651;SDS011;51062;45.120;37.660;2022-08-21T09:55:55;50.17;;;5.60;;
64651;SDS011;51062;45.120;37.660;2022-08-21T09:58:46;44.17;;;6.78;;
64651;SDS011;51062;45.120;37.660;2022-08-21T10:01:16;49.42;;;4.90;;
64651;SDS011;51062;45.120;37.660;2022-08-21T10:03:47;45.90;;;5.10;;
64651;SDS011;51062;45.120;37.660;2022-08-21T10:06:24;35.13;;;4.07;;
64651;SDS011;51062;45.120;37.660;2022-08-21T10:17:39;41.80;;;5.45;;
64651;SDS011;51062;45.120;37.660;2022-08-21T10:20:24;48.20;;;6.55;;
64651;SDS011;51062;45.120;37.660;2022-08-21T10:23:11;42.25;;;5.03;;
64651;SDS011;51062;45.120;37.660;2022-08-21T10:31:43;41.05;;;5.43;;
64651;SDS011;51062;45.120;37.660;2022-08-21T10:42:57;47.88;;;5.75;;
64651;SDS011;51062;45.120;37.660;2022-08-21T10:47:53;43.70;;;5.57;;
64651;SDS011;51062;45.120;37.660;2022-08-21T10:50:35;50.17;;;6.53;;
64651;SDS011;51062;45.120;37.660;2022-08-21T10:56:18;42.65;;;4.78;;
64651;SDS011;51062;45.120;37.660;2022-08-21T10:58:50;38.00;;;4.20;;
64651;SDS011;51062;45.120;37.660;2022-08-21T11:01:48;70.30;;;7.13;;
64651;SDS011;51062;45.120;37.660;2022-08-21T11:07:14;45.13;;;5.35;;
64651;SDS011;51062;45.120;37.660;2022-08-21T11:10:13;37.13;;;5.50;;
64651;SDS011;51062;45.120;37.660;2022-08-21T11:12:47;29.10;;;4.10;;
64651;SDS011;51062;45.120;37.660;2022-08-21T11:18:34;49.67;;;5.90;;
64651;SDS011;51062;45.120;37.660;2022-08-21T11:24:12;58.60;;;6.05;;
64651;SDS011;51062;45.120;37.660;2022-08-21T11:29:30;48.80;;;4.90;;
64651;SDS011;51062;45.120;37.660;2022-08-21T11:34:51;48.17;;;4.75;;
64651;SDS011;51062;45.120;37.660;2022-08-21T11:45:49;40.58;;;4.05;;
64651;SDS011;51062;45.120;37.660;2022-08-21T11:51:12;46.88;;;4.70;;
64651;SDS011;51062;45.120;37.660;2022-08-21T11:53:52;41.22;;;5.05;;
64651;SDS011;51062;45.120;37.660;2022-08-21T11:56:23;34.50;;;4.80;;
64651;SDS011;51062;45.120;37.660;2022-08-21T11:58:56;21.00;;;4.20;;
64651;SDS011;51062;45.120;37.660;2022-08-21T12:01:34;36.00;;;4.35;;
64651;SDS011;51062;45.120;37.660;2022-08-21T12:04:10;40.05;;;4.60;;
64651;SDS011;51062;45.120;37.660;2022-08-21T12:06:47;28.80;;;4.32;;
64651;SDS011;51062;45.120;37.660;2022-08-21T12:11:51;32.53;;;4.05;;
64651;SDS011;51062;45.120;37.660;2022-08-21T12:17:08;21.52;;;3.85;;
64651;SDS011;51062;45.120;37.660;2022-08-21T12:19:43;31.92;;;5.53;;
64651;SDS011;51062;45.120;37.660;2022-08-21T12:22:12;28.15;;;4.00;;
64651;SDS011;51062;45.120;37.660;2022-08-21T12:24:48;27.80;;;3.45;;
64651;SDS011;51062;45.120;37.660;2022-08-21T12:29:52;33.70;;;3.75;;
64651;SDS011;51062;45.120;37.660;2022-08-21T12:32:29;22.38;;;3.75;;
64651;SDS011;51062;45.120;37.660;2022-08-21T12:35:17;33.85;;;4.45;;
64651;SDS011;51062;45.120;37.660;2022-08-21T12:38:09;25.42;;;3.28;;
64651;SDS011;51062;45.120;37.660;2022-08-21T12:40:40;21.95;;;3.67;;
64651;SDS011;51062;45.120;37.660;2022-08-21T12:43:46;39.17;;;5.18;;
64651;SDS011;51062;45.120;37.660;2022-08-21T12:46:27;37.42;;;4.50;;
64651;SDS011;51062;45.120;37.660;2022-08-21T12:49:02;24.63;;;4.00;;
64651;SDS011;51062;45.120;37.660;2022-08-21T12:51:47;49.33;;;4.53;;
64651;SDS011;51062;45.120;37.660;2022-08-21T12:54:29;23.38;;;4.15;;
64651;SDS011;51062;45.120;37.660;2022-08-21T12:57:05;27.70;;;3.95;;
64651;SDS011;51062;45.120;37.660;2022-08-21T12:59:36;31.98;;;4.28;;
64651;SDS011;51062;45.120;37.660;2022-08-21T13:02:08;23.38;;;3.42;;
64651;SDS011;51062;45.120;37.660;2022-08-21T13:04:42;21.50;;;4.00;;
64651;SDS011;51062;45.120;37.660;2022-08-21T13:07:13;27.25;;;4.00;;
64651;SDS011;51062;45.120;37.660;2022-08-21T13:09:44;28.48;;;4.43;;
64651;SDS011;51062;45.120;37.660;2022-08-21T13:12:18;36.83;;;3.83;;
64651;SDS011;51062;45.120;37.660;2022-08-21T13:14:47;27.15;;;4.20;;
64651;SDS011;51062;45.120;37.660;2022-08-21T13:17:19;37.00;;;3.72;;
64651;SDS011;51062;45.120;37.660;2022-08-21T13:19:59;23.38;;;3.58;;
64651;SDS011;51062;45.120;37.660;2022-08-21T13:22:29;24.15;;;3.53;;
64651;SDS011;51062;45.120;37.660;2022-08-21T13:24:55;32.80;;;3.47;;
64651;SDS011;51062;45.120;37.660;2022-08-21T13:27:26;25.77;;;3.05;;
64651;SDS011;51062;45.120;37.660;2022-08-21T13:30:07;28.83;;;3.42;;
64651;SDS011;51062;45.120;37.660;2022-08-21T13:32:37;49.50;;;4.60;;
64651;SDS011;51062;45.120;37.660;2022-08-21T13:35:09;43.00;;;4.15;;
64651;SDS011;51062;45.120;37.660;2022-08-21T13:37:55;30.80;;;3.80;;
64651;SDS011;51062;45.120;37.660;2022-08-21T13:40:26;27.02;;;4.25;;
64651;SDS011;51062;45.120;37.660;2022-08-21T13:42:57;31.40;;;3.35;;
64651;SDS011;51062;45.120;37.660;2022-08-21T13:45:29;25.83;;;3.42;;
64651;SDS011;51062;45.120;37.660;2022-08-21T13:47:57;37.80;;;4.15;;
64651;SDS011;51062;45.120;37.660;2022-08-21T13:50:25;29.40;;;3.97;;
64651;SDS011;51062;45.120;37.660;2022-08-21T13:55:23;22.50;;;3.65;;
64651;SDS011;51062;45.120;37.660;2022-08-21T13:58:00;30.75;;;3.58;;
64651;SDS011;51062;45.120;37.660;2022-08-21T14:00:29;26.25;;;3.95;;
64651;SDS011;51062;45.120;37.660;2022-08-21T14:03:04;31.33;;;3.63;;
64651;SDS011;51062;45.120;37.660;2022-08-21T14:05:34;40.42;;;3.92;;
64651;SDS011;51062;45.120;37.660;2022-08-21T14:08:08;33.08;;;5.28;;
64651;SDS011;51062;45.120;37.660;2022-08-21T14:10:42;33.60;;;5.43;;
64651;SDS011;51062;45.120;37.660;2022-08-21T14:13:28;33.58;;;4.90;;
64651;SDS011;51062;45.120;37.660;2022-08-21T14:16:01;40.25;;;4.28;;
64651;SDS011;51062;45.120;37.660;2022-08-21T14:18:28;51.10;;;4.03;;
64651;SDS011;51062;45.120;37.660;2022-08-21T14:21:23;37.88;;;3.42;;
64651;SDS011;51062;45.120;37.660;2022-08-21T14:24:05;50.72;;;4.88;;
64651;SDS011;51062;45.120;37.660;2022-08-21T14:26:33;98.10;;;7.20;;
64651;SDS011;51062;45.120;37.660;2022-08-21T14:29:01;27.75;;;4.15;;
64651;SDS011;51062;45.120;37.660;2022-08-21T14:31:32;37.47;;;3.42;;
64651;SDS011;51062;45.120;37.660;2022-08-21T14:34:00;25.50;;;3.10;;
64651;SDS011;51062;45.120;37.660;2022-08-21T14:36:26;30.83;;;4.22;;
64651;SDS011;51062;45.120;37.660;2022-08-21T14:38:53;39.47;;;4.45;;
64651;SDS011;51062;45.120;37.660;2022-08-21T14:41:21;32.92;;;3.63;;
64651;SDS011;51062;45.120;37.660;2022-08-21T14:43:49;42.80;;;4.03;;
64651;SDS011;51062;45.120;37.660;2022-08-21T14:46:20;32.72;;;5.47;;
64651;SDS011;51062;45.120;37.660;2022-08-21T14:48:49;31.67;;;3.60;;
64651;SDS011;51062;45.120;37.660;2022-08-21T14:51:16;35.08;;;3.55;;
64651;SDS011;51062;45.120;37.660;2022-08-21T14:53:43;45.60;;;4.72;;
64651;SDS011;51062;45.120;37.660;2022-08-21T14:56:10;37.50;;;3.60;;
64651;SDS011;51062;45.120;37.660;2022-08-21T14:58:38;33.08;;;4.22;;
64651;SDS011;51062;45.120;37.660;2022-08-21T15:01:07;28.10;;;3.78;;
64651;SDS011;51062;45.120;37.660;2022-08-21T15:03:36;38.42;;;3.92;;
64651;SDS011;51062;45.120;37.660;2022-08-21T15:06:03;30.48;;;3.97;;
64651;SDS011;51062;45.120;37.660;2022-08-21T15:08:30;33.20;;;3.88;;
64651;SDS011;51062;45.120;37.660;2022-08-21T15:10:58;42.28;;;4.13;;
64651;SDS011;51062;45.120;37.660;2022-08-21T15:13:27;34.60;;;3.35;;
64651;SDS011;51062;45.120;37.660;2022-08-21T15:15:57;37.83;;;4.05;;
64651;SDS011;51062;45.120;37.660;2022-08-21T15:18:25;48.67;;;3.47;;
64651;SDS011;51062;45.120;37.660;2022-08-21T15:20:53;51.15;;;4.82;;
64651;SDS011;51062;45.120;37.660;2022-08-21T15:23:21;330.52;;;18.38;;
64651;SDS011;51062;45.120;37.660;2022-08-21T15:25:48;47.35;;;4.70;;
64651;SDS011;51062;45.120;37.660;2022-08-21T15:28:15;35.95;;;3.58;;
64651;SDS011;51062;45.120;37.660;2022-08-21T15:30:42;39.60;;;4.15;;
64651;SDS011;51062;45.120;37.660;2022-08-21T15:33:10;47.03;;;4.70;;
64651;SDS011;51062;45.120;37.660;2022-08-21T15:35:36;32.78;;;3.50;;
64651;SDS011;51062;45.120;37.660;2022-08-21T15:38:03;45.28;;;3.85;;
64651;SDS011;51062;45.120;37.660;2022-08-21T15:40:29;46.28;;;4.72;;
64651;SDS011;51062;45.120;37.660;2022-08-21T15:42:56;46.17;;;3.53;;
64651;SDS011;51062;45.120;37.660;2022-08-21T15:45:25;37.70;;;3.53;;
64651;SDS011;51062;45.120;37.660;2022-08-21T15:47:51;20.33;;;2.97;;
64651;SDS011;51062;45.120;37.660;2022-08-21T15:50:19;40.50;;;4.60;;
64651;SDS011;51062;45.120;37.660;2022-08-21T15:52:47;32.95;;;4.20;;
64651;SDS011;51062;45.120;37.660;2022-08-21T15:55:15;42.28;;;4.00;;